Sinai, South Dakota
Current Conditions -  °F | °C
As of 6:10 PM on Sunday 25 Jan 2015 (Local Time) from KMDS Reporting Station
Overcast Overcast  
Wind Chill: -4°   Ceiling: 800
Heat Index:   Visibility: 10mi
Dew Point:   Wind: 9mph
Humidity: 100%   Direction: 280°W
Pressure: 30"   Gusts: NA
Location:  44.24°N, 97.04°W
Report Text: KMDS 260010Z AUTO 28008KT 10SM OVC008 00/00 A3000 RMK AO2
Loading
Personal Weather Stations






























Interactive Weather Map New forecast layout! Learn more

10-Day Weather Forecast

Advertisements
Track Severe Weather on mobile